createdAt,value
2022-12-01T00:01:04.635Z,28.35
2022-12-01T00:03:35.787Z,28.30
2022-12-01T00:06:18.095Z,28.41
2022-12-01T00:09:09.198Z,28.59
2022-12-01T00:11:40.145Z,28.73
2022-12-01T00:14:10.700Z,28.83
2022-12-01T00:16:42.097Z,28.81
2022-12-01T00:19:13.183Z,28.87
2022-12-01T00:21:43.769Z,28.94
2022-12-01T00:24:14.827Z,28.98
2022-12-01T00:26:45.099Z,29.09
2022-12-01T00:29:15.532Z,29.16
2022-12-01T00:31:46.341Z,29.17
2022-12-01T00:34:24.754Z,29.23
2022-12-01T00:36:55.484Z,29.25
2022-12-01T00:39:26.426Z,29.29
2022-12-01T00:41:56.816Z,29.31
2022-12-01T00:44:27.207Z,29.32
2022-12-01T00:47:00.125Z,29.36
2022-12-01T00:49:31.056Z,29.41
2022-12-01T00:52:01.577Z,29.38
2022-12-01T00:54:33.336Z,29.43
2022-12-01T00:57:03.831Z,29.39
2022-12-01T00:59:34.629Z,29.42
2022-12-01T01:02:06.894Z,29.41
2022-12-01T01:04:38.666Z,29.41
2022-12-01T01:07:09.429Z,29.42
2022-12-01T01:09:40.087Z,29.46
2022-12-01T01:12:10.558Z,29.47
2022-12-01T01:14:41.133Z,29.48
2022-12-01T01:17:11.411Z,29.53
2022-12-01T01:19:41.633Z,29.56
2022-12-01T01:22:12.001Z,29.56
2022-12-01T01:24:46.941Z,29.56
2022-12-01T01:27:20.468Z,29.58
2022-12-01T01:29:51.299Z,29.58
2022-12-01T01:32:21.909Z,29.57
2022-12-01T01:34:52.781Z,29.58
2022-12-01T01:37:23.278Z,29.61
2022-12-01T01:39:53.636Z,29.61
2022-12-01T01:42:24.864Z,29.62
2022-12-01T01:44:56.391Z,29.66
2022-12-01T01:47:30.794Z,29.68
2022-12-01T01:50:07.352Z,29.71
2022-12-01T01:52:52.705Z,29.73
2022-12-01T01:55:23.281Z,29.77
2022-12-01T01:57:56.144Z,29.79
2022-12-01T02:00:29.510Z,29.83
2022-12-01T02:03:02.443Z,29.88
2022-12-01T02:05:34.754Z,29.89
2022-12-01T02:08:05.945Z,29.96
2022-12-01T02:11:00.219Z,30.02
2022-12-01T02:13:43.695Z,30.03
2022-12-01T02:16:31.875Z,30.09
2022-12-01T02:19:25.075Z,30.09
2022-12-01T02:21:55.589Z,30.10
2022-12-01T02:24:51.131Z,30.17
2022-12-01T02:27:39.374Z,30.17
2022-12-01T02:30:29.707Z,30.18
2022-12-01T02:33:06.270Z,30.18
2022-12-01T02:36:05.894Z,30.23
2022-12-01T02:38:54.838Z,30.29
2022-12-01T02:41:32.787Z,30.25
2022-12-01T02:44:22.722Z,30.37
2022-12-01T02:47:00.177Z,30.33
2022-12-01T02:49:39.519Z,30.40
2022-12-01T02:52:13.255Z,30.44
2022-12-01T02:54:47.014Z,30.47
2022-12-01T02:57:20.531Z,30.50
2022-12-01T02:59:53.341Z,30.53
2022-12-01T03:03:01.932Z,30.63
2022-12-01T03:05:55.103Z,30.68
2022-12-01T03:08:46.958Z,30.73
2022-12-01T03:11:43.654Z,30.70
2022-12-01T03:14:41.816Z,30.84
2022-12-01T03:17:18.688Z,30.88
2022-12-01T03:19:55.082Z,30.96
2022-12-01T03:22:34.779Z,31.05
2022-12-01T03:25:05.897Z,31.09
2022-12-01T03:27:44.085Z,31.14
2022-12-01T03:30:21.571Z,31.13
2022-12-01T03:32:56.408Z,31.16
2022-12-01T03:35:43.032Z,31.21
2022-12-01T03:38:28.812Z,31.24
2022-12-01T03:41:03.077Z,31.21
2022-12-01T03:43:35.593Z,31.29
2022-12-01T03:46:33.942Z,31.38
2022-12-01T03:49:06.526Z,31.37
2022-12-01T03:51:52.411Z,31.45
2022-12-01T03:54:47.639Z,31.46
2022-12-01T03:57:31.629Z,31.50
2022-12-01T04:00:03.307Z,31.49
2022-12-01T04:02:42.434Z,31.49
2022-12-01T04:05:14.375Z,31.53
2022-12-01T04:07:45.762Z,31.57
2022-12-01T04:10:16.212Z,31.66
2022-12-01T04:12:46.702Z,31.71
2022-12-01T04:15:18.707Z,31.77
2022-12-01T04:17:48.931Z,31.79
2022-12-01T04:20:19.780Z,31.78
2022-12-01T04:22:50.545Z,31.80
2022-12-01T04:25:21.369Z,31.80
2022-12-01T04:27:52.585Z,31.86
2022-12-01T04:30:22.815Z,31.87
2022-12-01T04:32:53.332Z,31.94
2022-12-01T04:35:24.402Z,32.00
2022-12-01T04:37:57.931Z,32.07
2022-12-01T04:40:28.716Z,32.15
2022-12-01T04:42:59.252Z,32.23
2022-12-01T04:45:29.806Z,32.31
2022-12-01T04:48:00.674Z,32.44
2022-12-01T04:50:32.865Z,32.51
2022-12-01T04:53:03.178Z,32.63
2022-12-01T04:55:33.741Z,32.58
2022-12-01T04:58:05.937Z,32.62
2022-12-01T05:00:36.550Z,32.72
2022-12-01T05:03:12.113Z,32.75
2022-12-01T05:05:45.442Z,32.84
2022-12-01T05:08:16.013Z,32.83
2022-12-01T05:10:46.887Z,32.89
2022-12-01T05:13:17.284Z,32.96
2022-12-01T05:15:49.729Z,33.09
2022-12-01T05:18:21.331Z,33.07
2022-12-01T05:21:00.584Z,33.09
2022-12-01T05:23:33.513Z,33.15
2022-12-01T05:26:06.219Z,33.25
2022-12-01T05:28:37.242Z,33.25
2022-12-01T05:31:10.694Z,33.30
2022-12-01T05:33:41.732Z,33.39
2022-12-01T05:36:12.723Z,33.44
2022-12-01T05:38:43.587Z,33.53
2022-12-01T05:41:14.524Z,33.41
2022-12-01T05:43:45.115Z,33.46
2022-12-01T05:46:15.664Z,33.57
2022-12-01T05:48:46.654Z,33.64
2022-12-01T05:51:18.664Z,33.70
2022-12-01T05:53:52.548Z,33.79
2022-12-01T05:56:22.844Z,33.88
2022-12-01T05:58:53.803Z,33.94
2022-12-01T06:01:24.624Z,34.02
2022-12-01T06:03:55.908Z,34.11
2022-12-01T06:06:26.288Z,34.23
2022-12-01T06:08:57.117Z,34.32
2022-12-01T06:11:27.715Z,34.35
2022-12-01T06:13:58.329Z,34.29
2022-12-01T06:16:29.460Z,34.23
2022-12-01T06:19:00.213Z,34.25
2022-12-01T06:21:30.841Z,34.11
2022-12-01T06:24:01.615Z,33.97
2022-12-01T06:26:32.088Z,33.90
2022-12-01T06:29:03.299Z,33.79
2022-12-01T06:31:33.617Z,33.69
2022-12-01T06:34:03.975Z,33.63
2022-12-01T06:36:35.071Z,33.83
2022-12-01T06:39:11.465Z,33.93
2022-12-01T06:41:42.818Z,33.83
2022-12-01T06:44:13.358Z,33.94
2022-12-01T06:46:44.828Z,34.05
2022-12-01T06:49:15.341Z,34.14
2022-12-01T06:51:46.187Z,33.99
2022-12-01T06:54:18.796Z,33.90
2022-12-01T06:56:49.421Z,33.64
2022-12-01T06:59:20.939Z,33.54
2022-12-01T07:01:52.285Z,33.40
2022-12-01T07:04:22.692Z,33.30
2022-12-01T07:06:53.273Z,33.22
2022-12-01T07:09:23.655Z,33.13
2022-12-01T07:11:54.087Z,33.11
2022-12-01T07:14:27.557Z,33.05
2022-12-01T07:16:57.944Z,32.96
2022-12-01T07:19:28.647Z,32.93
2022-12-01T07:21:58.958Z,32.93
2022-12-01T07:24:29.578Z,32.87
2022-12-01T07:27:02.888Z,32.90
2022-12-01T07:29:33.541Z,32.85
2022-12-01T07:32:03.730Z,32.75
2022-12-01T07:34:34.650Z,32.71
2022-12-01T07:37:04.958Z,32.63
2022-12-01T07:39:35.819Z,32.62
2022-12-01T07:42:07.480Z,32.61
2022-12-01T07:44:37.982Z,32.57
2022-12-01T07:47:08.788Z,32.53
2022-12-01T07:49:39.925Z,32.45
2022-12-01T07:52:10.531Z,32.42
2022-12-01T07:54:41.260Z,32.40
2022-12-01T07:57:15.721Z,32.36
2022-12-01T07:59:46.809Z,32.32
2022-12-01T08:02:17.699Z,32.28
2022-12-01T08:04:48.975Z,32.24
2022-12-01T08:07:19.767Z,32.17
2022-12-01T08:09:50.579Z,32.15
2022-12-01T08:12:21.527Z,32.15
2022-12-01T08:14:52.005Z,32.19
2022-12-01T08:17:23.167Z,32.09
2022-12-01T08:19:56.511Z,32.07
2022-12-01T08:22:30.691Z,32.07
2022-12-01T08:25:04.911Z,32.01
2022-12-01T08:27:36.004Z,31.98
2022-12-01T08:30:08.319Z,31.96
2022-12-01T08:32:39.036Z,31.95
2022-12-01T08:35:11.592Z,31.97
2022-12-01T08:37:42.143Z,31.90
2022-12-01T08:40:13.050Z,31.92
2022-12-01T08:42:43.865Z,31.89
2022-12-01T08:45:15.143Z,31.86
2022-12-01T08:47:46.025Z,31.81
2022-12-01T08:50:16.512Z,31.79
2022-12-01T08:52:47.579Z,31.80
2022-12-01T08:55:18.070Z,31.79
2022-12-01T08:57:49.144Z,31.75
2022-12-01T09:00:22.657Z,31.74
2022-12-01T09:02:52.979Z,31.73
2022-12-01T09:05:23.900Z,31.71
2022-12-01T09:08:14.374Z,31.70
2022-12-01T09:10:53.449Z,31.65
2022-12-01T09:13:24.375Z,31.63
2022-12-01T09:16:15.851Z,31.69
2022-12-01T09:18:47.804Z,31.60
2022-12-01T09:21:23.722Z,31.58
2022-12-01T09:24:03.263Z,31.60
2022-12-01T09:26:34.366Z,31.47
2022-12-01T09:29:10.197Z,31.53
2022-12-01T09:31:41.317Z,31.52
2022-12-01T09:34:15.270Z,31.55
2022-12-01T09:36:46.030Z,31.55
2022-12-01T09:39:22.821Z,31.50
2022-12-01T09:42:02.876Z,31.50
2022-12-01T09:44:54.074Z,31.55
2022-12-01T09:47:32.501Z,31.49
2022-12-01T09:50:12.030Z,31.52
2022-12-01T09:52:49.148Z,31.43
2022-12-01T09:55:21.697Z,31.40
2022-12-01T09:57:54.928Z,31.41
2022-12-01T10:00:29.154Z,31.47
2022-12-01T10:03:34.753Z,31.46
2022-12-01T10:06:27.109Z,31.40
2022-12-01T10:09:18.414Z,31.42
2022-12-01T10:11:49.661Z,31.36
2022-12-01T10:14:23.001Z,31.33
2022-12-01T10:17:12.857Z,31.28
2022-12-01T10:20:04.494Z,31.28
2022-12-01T10:22:51.635Z,31.29
2022-12-01T10:25:23.825Z,31.25
2022-12-01T10:28:11.850Z,31.04
2022-12-01T10:30:52.079Z,30.98
2022-12-01T10:33:31.869Z,30.89
2022-12-01T10:36:02.474Z,30.89
2022-12-01T10:38:38.422Z,30.85
2022-12-01T10:41:13.682Z,30.83
2022-12-01T10:43:52.901Z,30.81
2022-12-01T10:46:35.257Z,30.81
2022-12-01T10:49:12.090Z,30.84
2022-12-01T10:51:58.314Z,30.78
2022-12-01T10:54:40.886Z,30.78
2022-12-01T10:57:18.745Z,30.72
2022-12-01T10:59:59.642Z,30.66
2022-12-01T11:02:31.690Z,30.66
2022-12-01T11:05:20.308Z,30.68
2022-12-01T11:07:51.435Z,30.68
2022-12-01T11:10:25.926Z,30.61
2022-12-01T11:13:21.387Z,30.63
2022-12-01T11:16:00.534Z,30.64
2022-12-01T11:18:39.427Z,30.48
2022-12-01T11:21:29.856Z,30.49
2022-12-01T11:24:00.166Z,30.43
2022-12-01T11:26:34.098Z,30.43
2022-12-01T11:29:06.510Z,30.33
2022-12-01T11:31:48.517Z,30.31
2022-12-01T11:34:28.700Z,30.35
2022-12-01T11:37:05.486Z,30.27
2022-12-01T11:39:36.293Z,30.29
2022-12-01T11:42:21.224Z,30.28
2022-12-01T11:45:07.316Z,30.11
2022-12-01T11:48:16.390Z,30.17
2022-12-01T11:51:07.379Z,30.18
2022-12-01T11:53:43.725Z,30.07
2022-12-01T11:56:30.619Z,30.09
2022-12-01T11:59:06.560Z,30.02
2022-12-01T12:02:12.495Z,29.88
2022-12-01T12:05:23.675Z,29.90
2022-12-01T12:08:35.048Z,29.86
2022-12-01T12:11:14.478Z,29.88
2022-12-01T12:13:59.847Z,29.88
2022-12-01T12:16:39.422Z,29.94
2022-12-01T12:19:22.405Z,29.91
2022-12-01T12:22:25.663Z,29.91
2022-12-01T12:25:20.765Z,29.92
2022-12-01T12:28:19.509Z,29.95
2022-12-01T12:30:50.999Z,29.92
2022-12-01T12:33:57.792Z,29.94
2022-12-01T12:36:37.920Z,29.92
2022-12-01T12:39:27.936Z,29.91
2022-12-01T12:41:59.055Z,29.92
2022-12-01T12:45:00.615Z,29.90
2022-12-01T12:47:54.430Z,29.88
2022-12-01T12:50:33.961Z,29.87
2022-12-01T12:53:11.429Z,29.88
2022-12-01T12:55:44.766Z,29.85
2022-12-01T12:58:17.746Z,29.85
2022-12-01T13:01:15.247Z,29.84
2022-12-01T13:04:17.559Z,29.85
2022-12-01T13:06:52.852Z,29.79
2022-12-01T13:09:45.265Z,29.78
2022-12-01T13:12:36.018Z,29.78
2022-12-01T13:15:20.363Z,29.78
2022-12-01T13:18:19.873Z,29.74
2022-12-01T13:20:52.169Z,29.75
2022-12-01T13:23:23.678Z,29.76
2022-12-01T13:25:56.746Z,29.78
2022-12-01T13:28:41.576Z,29.80
2022-12-01T13:31:15.527Z,29.82
2022-12-01T13:34:04.056Z,29.82
2022-12-01T13:36:50.438Z,29.79
2022-12-01T13:39:30.819Z,29.79
2022-12-01T13:42:09.250Z,29.82
2022-12-01T13:44:44.702Z,29.82
2022-12-01T13:47:18.429Z,29.81
2022-12-01T13:49:52.914Z,29.81
2022-12-01T13:52:23.624Z,29.81
2022-12-01T13:55:08.906Z,29.89
2022-12-01T13:57:44.901Z,30.16
2022-12-01T14:00:35.785Z,30.32
2022-12-01T14:03:22.035Z,30.37
2022-12-01T14:06:00.855Z,30.39
2022-12-01T14:08:35.052Z,30.38
2022-12-01T14:11:21.360Z,30.42
2022-12-01T14:14:05.771Z,30.42
2022-12-01T14:16:50.563Z,30.43
2022-12-01T14:19:47.656Z,30.45
2022-12-01T14:22:40.724Z,30.45
2022-12-01T14:25:23.449Z,30.41
2022-12-01T14:27:59.049Z,30.41
2022-12-01T14:30:42.840Z,30.37
2022-12-01T14:33:45.972Z,30.41
2022-12-01T14:36:25.685Z,30.42
2022-12-01T14:38:59.138Z,30.37
2022-12-01T14:41:34.862Z,30.38
2022-12-01T14:44:34.809Z,30.38
2022-12-01T14:47:38.898Z,30.39
2022-12-01T14:50:18.278Z,30.35
2022-12-01T14:52:55.102Z,30.37
2022-12-01T14:55:33.082Z,30.36
2022-12-01T14:58:07.415Z,30.34
2022-12-01T15:00:39.674Z,30.30
2022-12-01T15:03:13.901Z,30.30
2022-12-01T15:05:45.333Z,30.29
2022-12-01T15:08:53.225Z,30.32
2022-12-01T15:11:26.635Z,30.27
2022-12-01T15:14:01.569Z,30.25
2022-12-01T15:16:33.658Z,30.20
2022-12-01T15:19:04.545Z,30.20
2022-12-01T15:21:37.939Z,30.17
2022-12-01T15:24:23.154Z,30.17
2022-12-01T15:27:03.685Z,30.17
2022-12-01T15:29:45.729Z,30.17
2022-12-01T15:32:19.551Z,30.16
2022-12-01T15:34:53.193Z,30.12
2022-12-01T15:37:27.537Z,30.13
2022-12-01T15:40:54.012Z,30.13
2022-12-01T15:43:25.006Z,30.17
2022-12-01T15:46:02.202Z,30.13
2022-12-01T15:48:35.646Z,29.91
2022-12-01T15:51:28.754Z,29.94
2022-12-01T15:54:00.654Z,29.91
2022-12-01T15:56:32.171Z,29.84
2022-12-01T15:59:11.831Z,29.84
2022-12-01T16:01:45.079Z,29.79
2022-12-01T16:04:24.429Z,29.77
2022-12-01T16:07:02.074Z,29.74
2022-12-01T16:09:42.371Z,29.79
2022-12-01T16:12:18.876Z,29.82
2022-12-01T16:15:19.211Z,29.79
2022-12-01T16:17:52.082Z,29.71
2022-12-01T16:20:43.225Z,29.73
2022-12-01T16:23:20.014Z,29.70
2022-12-01T16:25:52.928Z,29.72
2022-12-01T16:28:37.918Z,29.71
2022-12-01T16:31:13.945Z,29.66
2022-12-01T16:33:47.537Z,29.64
2022-12-01T16:36:20.407Z,29.65
2022-12-01T16:38:54.397Z,29.62
2022-12-01T16:41:37.919Z,29.62
2022-12-01T16:46:59.413Z,29.56
2022-12-01T16:49:30.261Z,29.50
2022-12-01T16:52:11.104Z,29.52
2022-12-01T16:54:46.290Z,29.47
2022-12-01T16:57:18.292Z,29.42
2022-12-01T16:59:48.961Z,29.42
2022-12-01T17:02:19.286Z,29.42
2022-12-01T17:04:50.417Z,29.35
2022-12-01T17:07:21.631Z,29.32
2022-12-01T17:09:52.287Z,29.33
2022-12-01T17:12:26.258Z,29.30
2022-12-01T17:14:56.794Z,29.28
2022-12-01T17:17:27.205Z,29.24
2022-12-01T17:19:57.855Z,29.27
2022-12-01T17:22:28.143Z,29.25
2022-12-01T17:24:58.464Z,29.24
2022-12-01T17:27:28.666Z,29.23
2022-12-01T17:30:02.644Z,29.18
2022-12-01T17:32:33.492Z,29.17
2022-12-01T17:35:04.452Z,29.13
2022-12-01T17:37:34.715Z,29.13
2022-12-01T17:40:08.017Z,29.12
2022-12-01T17:42:38.657Z,29.09
2022-12-01T17:45:09.876Z,29.08
2022-12-01T17:47:40.530Z,29.10
2022-12-01T17:50:11.440Z,29.06
2022-12-01T17:52:41.915Z,29.09
2022-12-01T17:55:12.931Z,29.08
2022-12-01T17:57:43.544Z,29.06
2022-12-01T18:00:14.730Z,29.02
2022-12-01T18:02:45.109Z,29.02
2022-12-01T18:05:16.029Z,29.00
2022-12-01T18:07:47.055Z,28.99
2022-12-01T18:10:17.450Z,28.98
2022-12-01T18:12:48.357Z,28.98
2022-12-01T18:15:19.689Z,28.98
2022-12-01T18:17:50.334Z,28.96
2022-12-01T18:20:20.953Z,28.95
2022-12-01T18:22:51.727Z,28.94
2022-12-01T18:25:22.470Z,28.93
2022-12-01T18:27:59.223Z,28.92
2022-12-01T18:30:30.580Z,28.93
2022-12-01T18:33:01.698Z,28.91
2022-12-01T18:35:32.274Z,28.89
2022-12-01T18:38:02.832Z,28.90
2022-12-01T18:40:33.476Z,28.86
2022-12-01T18:43:04.097Z,28.81
2022-12-01T18:45:34.538Z,28.83
2022-12-01T18:48:06.683Z,28.83
2022-12-01T18:50:37.148Z,28.81
2022-12-01T18:53:07.852Z,28.81
2022-12-01T18:55:39.035Z,28.81
2022-12-01T18:58:09.755Z,28.81
2022-12-01T19:00:40.392Z,28.81
2022-12-01T19:03:11.344Z,28.80
2022-12-01T19:05:42.461Z,28.78
2022-12-01T19:08:12.937Z,28.79
2022-12-01T19:10:43.327Z,28.79
2022-12-01T19:13:14.022Z,28.78
2022-12-01T19:15:45.021Z,28.78
2022-12-01T19:18:17.604Z,28.73
2022-12-01T19:20:48.270Z,28.73
2022-12-01T19:23:19.083Z,28.74
2022-12-01T19:25:49.354Z,28.69
2022-12-01T19:28:19.669Z,28.70
2022-12-01T19:30:50.787Z,28.69
2022-12-01T19:33:21.478Z,28.69
2022-12-01T19:35:51.689Z,28.70
2022-12-01T19:38:22.338Z,28.66
2022-12-01T19:40:53.695Z,28.64
2022-12-01T19:43:24.197Z,28.65
2022-12-01T19:45:55.662Z,28.65
2022-12-01T19:48:26.233Z,28.66
2022-12-01T19:50:56.651Z,28.65
2022-12-01T19:53:31.991Z,28.67
2022-12-01T19:56:06.224Z,28.63
2022-12-01T19:58:39.825Z,28.63
2022-12-01T20:01:13.116Z,28.64
2022-12-01T20:03:47.439Z,28.60
2022-12-01T20:06:20.535Z,28.56
2022-12-01T20:08:51.963Z,28.59
2022-12-01T20:11:22.738Z,28.61
2022-12-01T20:13:53.307Z,28.59
2022-12-01T20:16:26.087Z,28.61
2022-12-01T20:18:56.839Z,28.56
2022-12-01T20:21:33.329Z,28.52
2022-12-01T20:24:08.395Z,28.52
2022-12-01T20:26:41.965Z,28.52
2022-12-01T20:29:25.382Z,28.53
2022-12-01T20:31:58.619Z,28.51
2022-12-01T20:34:35.426Z,28.49
2022-12-01T20:37:06.672Z,28.49
2022-12-01T20:39:39.161Z,28.51
2022-12-01T20:42:11.821Z,28.49
2022-12-01T20:44:42.421Z,28.48
2022-12-01T20:47:13.044Z,28.49
2022-12-01T20:49:43.752Z,28.47
2022-12-01T20:52:15.545Z,28.49
2022-12-01T20:54:46.964Z,28.50
2022-12-01T20:57:17.656Z,28.48
2022-12-01T20:59:48.435Z,28.40
2022-12-01T21:02:18.949Z,28.40
2022-12-01T21:04:50.179Z,28.38
2022-12-01T21:07:21.665Z,28.39
2022-12-01T21:09:52.212Z,28.39
2022-12-01T21:12:40.624Z,28.38
2022-12-01T21:15:16.319Z,28.38
2022-12-01T21:17:54.594Z,28.38
2022-12-01T21:20:52.409Z,28.40
2022-12-01T21:23:23.034Z,28.37
2022-12-01T21:25:53.465Z,28.33
2022-12-01T21:28:27.919Z,28.36
2022-12-01T21:31:17.527Z,28.37
2022-12-01T21:33:48.520Z,28.34
2022-12-01T21:36:21.108Z,28.34
2022-12-01T21:38:56.796Z,28.28
2022-12-01T21:41:33.084Z,28.31
2022-12-01T21:44:16.322Z,28.31
2022-12-01T21:46:47.385Z,28.34
2022-12-01T21:49:23.137Z,28.32
2022-12-01T21:51:54.778Z,28.32
2022-12-01T21:54:25.293Z,28.27
2022-12-01T21:56:58.630Z,28.24
2022-12-01T21:59:31.761Z,28.27
2022-12-01T22:02:32.647Z,28.26
2022-12-01T22:05:04.063Z,28.27
2022-12-01T22:07:34.313Z,28.27
2022-12-01T22:10:42.634Z,28.31
2022-12-01T22:13:13.119Z,28.27
2022-12-01T22:15:44.072Z,28.25
2022-12-01T22:18:40.301Z,28.24
2022-12-01T22:21:36.149Z,28.28
2022-12-01T22:24:09.889Z,28.25
2022-12-01T22:26:48.811Z,28.24
2022-12-01T22:29:29.923Z,28.21
2022-12-01T22:32:15.389Z,28.26
2022-12-01T22:35:00.980Z,28.22
2022-12-01T22:37:47.661Z,28.20
2022-12-01T22:40:39.118Z,28.26
2022-12-01T22:43:18.856Z,28.18
2022-12-01T22:45:55.975Z,28.18
2022-12-01T22:48:29.356Z,28.19
2022-12-01T22:51:23.048Z,28.22
2022-12-01T22:53:59.496Z,28.18
2022-12-01T22:56:51.728Z,28.25
2022-12-01T22:59:30.927Z,28.19
2022-12-01T23:02:03.913Z,28.14
2022-12-01T23:04:40.320Z,28.12
2022-12-01T23:07:34.947Z,28.18
2022-12-01T23:10:24.219Z,28.18
2022-12-01T23:12:55.847Z,28.17
2022-12-01T23:15:28.945Z,28.10
2022-12-01T23:18:17.242Z,28.20
2022-12-01T23:20:52.745Z,28.19
2022-12-01T23:23:28.414Z,28.18
2022-12-01T23:26:02.318Z,28.19
2022-12-01T23:28:32.980Z,28.21
2022-12-01T23:31:03.531Z,28.23
2022-12-01T23:33:36.157Z,28.20
2022-12-01T23:36:15.803Z,28.20
2022-12-01T23:38:48.491Z,28.15
2022-12-01T23:41:26.122Z,28.15
2022-12-01T23:43:57.447Z,28.18
2022-12-01T23:46:29.362Z,28.17
2022-12-01T23:49:03.035Z,28.22
2022-12-01T23:51:39.156Z,28.21
2022-12-01T23:54:34.110Z,28.29
2022-12-01T23:57:11.233Z,28.25
2022-12-01T23:59:54.844Z,28.25
